Time,TemperatureF,DewpointF,PressureIn,WindDirection,WindDirectionDegrees,WindSpeedMPH,WindSpeedGustMPH,Humidity,HourlyPrecipIn,Conditions,Clouds,dailyrainin,SoftwareType,DateUTC
2016-02-10 00:04:00,58.7,46.1,30.04,North,0,0.0,0.0,63,0.00,,,0.00,WUHU216HW,2016-02-10 05:04:00,
2016-02-10 00:09:00,58.7,46.1,30.04,North,0,0.0,0.0,63,0.00,,,0.00,WUHU216HW,2016-02-10 05:09:00,
2016-02-10 00:19:00,58.5,46.4,30.03,North,0,0.0,0.0,64,0.00,,,0.00,WUHU216HW,2016-02-10 05:19:00,
2016-02-10 00:24:00,58.3,46.2,30.03,North,0,0.0,0.0,64,0.00,,,0.00,WUHU216HW,2016-02-10 05:24:00,
2016-02-10 00:29:00,58.3,46.2,30.03,North,0,0.0,0.0,64,0.00,,,0.00,WUHU216HW,2016-02-10 05:29:00,
2016-02-10 00:34:00,58.3,46.2,30.03,North,0,0.0,0.0,64,0.00,,,0.00,WUHU216HW,2016-02-10 05:34:00,
2016-02-10 00:39:00,58.1,46.0,30.04,North,0,0.0,0.0,64,0.00,,,0.00,WUHU216HW,2016-02-10 05:39:00,
2016-02-10 00:44:00,58.1,46.0,30.04,North,0,0.0,0.0,64,0.00,,,0.00,WUHU216HW,2016-02-10 05:44:00,
2016-02-10 00:54:00,58.0,45.8,30.04,North,0,0.0,0.0,64,0.00,,,0.00,WUHU216HW,2016-02-10 05:54:00,
2016-02-10 00:59:00,58.0,45.8,30.04,North,0,0.0,0.0,64,0.00,,,0.00,WUHU216HW,2016-02-10 05:59:00,
2016-02-10 01:04:00,57.8,45.6,30.04,North,0,0.0,0.0,64,0.00,,,0.00,WUHU216HW,2016-02-10 06:04:00,
2016-02-10 01:09:00,57.8,46.1,30.04,North,0,0.0,0.0,65,0.00,,,0.00,WUHU216HW,2016-02-10 06:09:00,
2016-02-10 01:14:00,58.7,47.4,30.05,North,0,0.0,0.0,66,0.00,,,0.00,WUHU216HW,2016-02-10 06:14:00,
2016-02-10 01:19:00,58.3,46.2,30.05,North,0,0.0,0.0,64,0.00,,,0.00,WUHU216HW,2016-02-10 06:19:00,
2016-02-10 01:24:00,58.0,45.8,30.05,North,0,0.0,0.0,64,0.00,,,0.00,WUHU216HW,2016-02-10 06:24:00,
2016-02-10 01:29:00,57.6,45.5,30.05,North,0,0.0,0.0,64,0.00,,,0.00,WUHU216HW,2016-02-10 06:29:00,
2016-02-10 01:34:00,57.2,45.2,30.04,North,0,0.0,0.0,64,0.00,,,0.00,WUHU216HW,2016-02-10 06:34:00,
2016-02-10 01:39:00,57.2,45.2,30.05,North,0,0.0,0.0,64,0.00,,,0.00,WUHU216HW,2016-02-10 06:39:00,
2016-02-10 01:44:00,57.2,45.2,30.05,North,0,0.0,0.0,64,0.00,,,0.00,WUHU216HW,2016-02-10 06:44:00,
2016-02-10 01:49:00,57.1,45.4,30.05,North,0,0.0,0.0,65,0.00,,,0.00,WUHU216HW,2016-02-10 06:49:00,
2016-02-10 01:54:00,57.1,45.4,30.05,North,0,0.0,0.0,65,0.00,,,0.00,WUHU216HW,2016-02-10 06:54:00,
2016-02-10 01:59:00,56.9,45.2,30.05,North,0,0.0,0.0,65,0.00,,,0.00,WUHU216HW,2016-02-10 06:59:00,
2016-02-10 02:04:00,56.7,45.0,30.04,North,0,0.0,0.0,65,0.00,,,0.00,WUHU216HW,2016-02-10 07:04:00,
2016-02-10 02:14:00,56.5,45.3,30.04,North,0,0.0,0.0,66,0.00,,,0.00,WUHU216HW,2016-02-10 07:14:00,
2016-02-10 02:19:00,56.5,45.3,30.04,North,0,0.0,0.0,66,0.00,,,0.00,WUHU216HW,2016-02-10 07:19:00,
2016-02-10 02:24:00,56.3,45.1,30.04,North,0,0.0,0.0,66,0.00,,,0.00,WUHU216HW,2016-02-10 07:24:00,
2016-02-10 02:29:00,56.3,45.5,30.04,North,0,0.0,0.0,67,0.00,,,0.00,WUHU216HW,2016-02-10 07:29:00,
2016-02-10 02:34:00,56.2,45.4,30.04,North,0,0.0,0.0,67,0.00,,,0.00,WUHU216HW,2016-02-10 07:34:00,
2016-02-10 02:39:00,56.2,45.4,30.04,North,0,0.0,0.0,67,0.00,,,0.00,WUHU216HW,2016-02-10 07:39:00,
2016-02-10 02:49:00,55.8,45.0,30.04,North,0,0.0,0.0,67,0.00,,,0.00,WUHU216HW,2016-02-10 07:49:00,
2016-02-10 02:54:00,55.8,45.4,30.04,North,0,0.0,0.0,68,0.00,,,0.00,WUHU216HW,2016-02-10 07:54:00,
2016-02-10 02:59:00,55.6,45.3,30.04,North,0,0.0,0.0,68,0.00,,,0.00,WUHU216HW,2016-02-10 07:59:00,
2016-02-10 03:04:00,55.4,45.1,30.04,North,0,0.0,0.0,68,0.00,,,0.00,WUHU216HW,2016-02-10 08:04:00,
2016-02-10 03:09:00,55.4,45.1,30.05,North,0,0.0,0.0,68,0.00,,,0.00,WUHU216HW,2016-02-10 08:09:00,
2016-02-10 03:14:00,55.3,44.9,30.05,North,0,0.0,0.0,68,0.00,,,0.00,WUHU216HW,2016-02-10 08:14:00,
2016-02-10 03:19:00,55.3,44.9,30.05,North,0,0.0,0.0,68,0.00,,,0.00,WUHU216HW,2016-02-10 08:19:00,
2016-02-10 03:24:00,55.1,44.7,30.05,North,0,0.0,0.0,68,0.00,,,0.00,WUHU216HW,2016-02-10 08:24:00,
2016-02-10 03:29:00,55.1,44.7,30.05,North,0,0.0,0.0,68,0.00,,,0.00,WUHU216HW,2016-02-10 08:29:00,
2016-02-10 03:34:00,54.9,44.6,30.05,North,0,0.0,0.0,68,0.00,,,0.00,WUHU216HW,2016-02-10 08:34:00,
2016-02-10 03:44:00,54.7,44.4,30.05,North,0,0.0,0.0,68,0.00,,,0.00,WUHU216HW,2016-02-10 08:44:00,
2016-02-10 03:54:00,54.4,44.0,30.05,North,0,0.0,0.0,68,0.00,,,0.00,WUHU216HW,2016-02-10 08:54:00,
2016-02-10 03:59:00,54.4,44.0,30.05,North,0,0.0,0.0,68,0.00,,,0.00,WUHU216HW,2016-02-10 08:59:00,
2016-02-10 04:04:00,54.2,43.8,30.06,North,0,0.0,0.0,68,0.00,,,0.00,WUHU216HW,2016-02-10 09:04:00,
2016-02-10 04:09:00,54.2,43.8,30.06,North,0,0.0,0.0,68,0.00,,,0.00,WUHU216HW,2016-02-10 09:09:00,
2016-02-10 04:14:00,54.0,43.7,30.06,North,0,0.0,0.0,68,0.00,,,0.00,WUHU216HW,2016-02-10 09:14:00,
2016-02-10 04:19:00,54.0,43.7,30.06,North,0,0.0,0.0,68,0.00,,,0.00,WUHU216HW,2016-02-10 09:19:00,
2016-02-10 04:24:00,53.8,43.9,30.07,North,0,0.0,0.0,69,0.00,,,0.00,WUHU216HW,2016-02-10 09:24:00,
2016-02-10 04:29:00,53.6,44.1,30.06,North,0,0.0,0.0,70,0.00,,,0.00,WUHU216HW,2016-02-10 09:29:00,
2016-02-10 04:34:00,53.5,43.9,30.06,North,0,0.0,0.0,70,0.00,,,0.00,WUHU216HW,2016-02-10 09:34:00,
2016-02-10 04:39:00,53.3,43.4,30.07,North,0,0.0,0.0,69,0.00,,,0.00,WUHU216HW,2016-02-10 09:39:00,
2016-02-10 04:44:00,53.3,43.4,30.07,North,0,0.0,0.0,69,0.00,,,0.00,WUHU216HW,2016-02-10 09:44:00,
2016-02-10 04:49:00,52.9,43.0,30.06,North,0,0.0,0.0,69,0.00,,,0.00,WUHU216HW,2016-02-10 09:49:00,
2016-02-10 04:54:00,52.9,42.7,30.07,North,0,0.0,0.0,68,0.00,,,0.00,WUHU216HW,2016-02-10 09:54:00,
2016-02-10 04:59:00,52.7,42.1,30.07,North,0,0.0,0.0,67,0.00,,,0.00,WUHU216HW,2016-02-10 09:59:00,
2016-02-10 05:04:00,52.7,41.7,30.07,North,0,0.0,0.0,66,0.00,,,0.00,WUHU216HW,2016-02-10 10:04:00,
2016-02-10 05:09:00,52.6,41.5,30.07,North,0,0.0,0.0,66,0.00,,,0.00,WUHU216HW,2016-02-10 10:09:00,
2016-02-10 05:14:00,52.6,42.0,30.08,North,0,0.0,0.0,67,0.00,,,0.00,WUHU216HW,2016-02-10 10:14:00,
2016-02-10 05:19:00,52.6,42.0,30.08,North,0,0.0,0.0,67,0.00,,,0.00,WUHU216HW,2016-02-10 10:19:00,
2016-02-10 05:24:00,52.4,41.3,30.08,North,0,0.0,0.0,66,0.00,,,0.00,WUHU216HW,2016-02-10 10:24:00,
2016-02-10 05:29:00,52.2,41.6,30.08,North,0,0.0,0.0,67,0.00,,,0.00,WUHU216HW,2016-02-10 10:29:00,
2016-02-10 05:34:00,52.2,41.6,30.09,North,0,0.0,0.0,67,0.00,,,0.00,WUHU216HW,2016-02-10 10:34:00,
2016-02-10 05:39:00,52.2,41.6,30.09,North,0,0.0,0.0,67,0.00,,,0.00,WUHU216HW,2016-02-10 10:39:00,
2016-02-10 05:44:00,52.0,41.0,30.09,North,0,0.0,0.0,66,0.00,,,0.00,WUHU216HW,2016-02-10 10:44:00,
2016-02-10 05:54:00,51.7,40.7,30.10,North,0,0.0,0.0,66,0.00,,,0.00,WUHU216HW,2016-02-10 10:54:00,
2016-02-10 05:59:00,51.7,40.7,30.10,North,0,0.0,0.0,66,0.00,,,0.00,WUHU216HW,2016-02-10 10:59:00,
2016-02-10 06:04:00,51.7,40.7,30.10,North,0,0.0,0.0,66,0.00,,,0.00,WUHU216HW,2016-02-10 11:04:00,
2016-02-10 06:09:00,51.5,40.5,30.11,North,0,0.0,0.0,66,0.00,,,0.00,WUHU216HW,2016-02-10 11:09:00,
2016-02-10 06:14:00,51.5,40.1,30.11,North,0,0.0,0.0,65,0.00,,,0.00,WUHU216HW,2016-02-10 11:14:00,
2016-02-10 06:19:00,51.3,39.9,30.11,North,0,0.0,0.0,65,0.00,,,0.00,WUHU216HW,2016-02-10 11:19:00,
2016-02-10 06:24:00,51.3,39.5,30.11,North,0,0.0,0.0,64,0.00,,,0.00,WUHU216HW,2016-02-10 11:24:00,
2016-02-10 06:29:00,51.1,38.9,30.11,North,0,0.0,0.0,63,0.00,,,0.00,WUHU216HW,2016-02-10 11:29:00,
2016-02-10 06:34:00,50.9,38.7,30.12,North,0,0.0,0.0,63,0.00,,,0.00,WUHU216HW,2016-02-10 11:34:00,
2016-02-10 06:39:00,50.9,38.3,30.12,North,0,0.0,0.0,62,0.00,,,0.00,WUHU216HW,2016-02-10 11:39:00,
2016-02-10 06:44:00,50.9,38.3,30.13,North,0,0.0,0.0,62,0.00,,,0.00,WUHU216HW,2016-02-10 11:44:00,
2016-02-10 06:49:00,50.8,38.2,30.13,North,0,0.0,0.0,62,0.00,,,0.00,WUHU216HW,2016-02-10 11:49:00,
2016-02-10 06:54:00,50.8,38.2,30.13,North,0,0.0,0.0,62,0.00,,,0.00,WUHU216HW,2016-02-10 11:54:00,
2016-02-10 06:59:00,50.8,37.8,30.13,North,0,0.0,0.0,61,0.00,,,0.00,WUHU216HW,2016-02-10 11:59:00,
2016-02-10 07:04:00,50.8,37.4,30.13,North,0,0.0,0.0,60,0.00,,,0.00,WUHU216HW,2016-02-10 12:04:00,
2016-02-10 07:09:00,50.8,37.4,30.13,North,0,0.0,0.0,60,0.00,,,0.00,WUHU216HW,2016-02-10 12:09:00,
2016-02-10 07:14:00,50.6,37.2,30.14,North,0,0.0,0.0,60,0.00,,,0.00,WUHU216HW,2016-02-10 12:14:00,
2016-02-10 07:19:00,50.6,37.2,30.14,North,0,0.0,0.0,60,0.00,,,0.00,WUHU216HW,2016-02-10 12:19:00,
2016-02-10 07:24:00,50.6,36.7,30.14,North,0,0.0,0.0,59,0.00,,,0.00,WUHU216HW,2016-02-10 12:24:00,
2016-02-10 07:29:00,50.8,36.9,30.15,North,0,0.0,0.0,59,0.00,,,0.00,WUHU216HW,2016-02-10 12:29:00,
2016-02-10 07:34:00,50.6,36.7,30.15,North,0,0.0,0.0,59,0.00,,,0.00,WUHU216HW,2016-02-10 12:34:00,
2016-02-10 10:49:00,57.8,28.7,30.20,North,0,0.0,0.0,33,0.00,,,0.00,WUHU216HW,2016-02-10 15:49:00,
2016-02-10 10:54:00,57.6,31.3,30.20,North,0,0.0,0.0,37,0.00,,,0.00,WUHU216HW,2016-02-10 15:54:00,
2016-02-10 10:59:00,57.6,30.6,30.20,North,0,0.0,0.0,36,0.00,,,0.00,WUHU216HW,2016-02-10 15:59:00,
2016-02-10 11:04:00,58.0,28.9,30.20,North,0,0.0,0.0,33,0.00,,,0.00,WUHU216HW,2016-02-10 16:04:00,
2016-02-10 11:14:00,59.2,33.5,30.19,North,0,0.0,0.0,38,0.00,,,0.00,WUHU216HW,2016-02-10 16:14:00,
2016-02-10 11:19:00,59.2,32.1,30.20,North,0,0.0,0.0,36,0.00,,,0.00,WUHU216HW,2016-02-10 16:19:00,
2016-02-10 11:24:00,58.9,31.8,30.20,North,0,0.0,0.0,36,0.00,,,0.00,WUHU216HW,2016-02-10 16:24:00,
2016-02-10 11:29:00,58.7,31.6,30.20,North,0,0.0,0.0,36,0.00,,,0.00,WUHU216HW,2016-02-10 16:29:00,
2016-02-10 11:34:00,58.3,31.3,30.20,North,0,0.0,0.0,36,0.00,,,0.00,WUHU216HW,2016-02-10 16:34:00,
2016-02-10 11:39:00,58.0,31.7,30.19,North,0,0.0,0.0,37,0.00,,,0.00,WUHU216HW,2016-02-10 16:39:00,
2016-02-10 11:44:00,58.5,32.1,30.19,North,0,0.0,0.0,37,0.00,,,0.00,WUHU216HW,2016-02-10 16:44:00,
2016-02-10 11:49:00,58.9,33.8,30.18,North,0,0.0,0.0,39,0.00,,,0.00,WUHU216HW,2016-02-10 16:49:00,
2016-02-10 11:54:00,59.2,33.5,30.18,North,0,0.0,0.0,38,0.00,,,0.00,WUHU216HW,2016-02-10 16:54:00,
2016-02-10 11:59:00,59.9,33.4,30.18,North,0,0.0,0.0,37,0.00,,,0.00,WUHU216HW,2016-02-10 16:59:00,
2016-02-10 12:04:00,60.1,32.9,30.18,North,0,0.0,0.0,36,0.00,,,0.00,WUHU216HW,2016-02-10 17:04:00,
2016-02-10 12:09:00,59.9,34.1,30.17,North,0,0.0,0.0,38,0.00,,,0.00,WUHU216HW,2016-02-10 17:09:00,
2016-02-10 12:14:00,60.5,33.9,30.18,North,0,0.0,0.0,37,0.00,,,0.00,WUHU216HW,2016-02-10 17:14:00,
2016-02-10 12:19:00,60.8,34.9,30.17,North,0,0.0,0.0,38,0.00,,,0.00,WUHU216HW,2016-02-10 17:19:00,